Crestwood, Missouri
Current Conditions -  °F | °C
As of 5:53 PM on Wednesday 26 Nov 2014 (Local Time) from KCPS Reporting Station
Haze Haze  
Wind Chill: 33°   Ceiling: 500
Heat Index: 33°   Visibility: 4mi
Dew Point: 33°   Wind: 0mph
Humidity: 100%   Direction: NA
Pressure: 30.05"   Gusts: NA
Location:  38.5502°N, 90.379°W
Report Text: KCPS 262353Z 00000KT 4SM BR OVC005 01/01 A3005 RMK AO2 SLP178 60021 T00060006 10028 20006 51009
Loading
Personal Weather Stations






























Interactive Weather Map New forecast layout! Learn more

10-Day Weather Forecast

Advertisements
Track Severe Weather on mobile